Time;durP1;ratioP1;P1;durP2;ratioP2;P2;SDS_P1;SDS_P2;PMS_P1;PMS_P2;Temp;Humidity;BMP_temperature;BMP_pressure;BME280_temperature;BME280_humidity;BME280_pressure;Samples;Min_cycle;Max_cycle;Signal;HPM_P1;HPM_P2
2022/11/20 00:00:53;;;;;;;124.47;28.30;;;;;;;;;;4983104;28;20280;-53
2022/11/20 00:03:19;;;;;;;336.47;67.97;;;;;;;;;;4982446;28;20649;-53
2022/11/20 00:05:46;;;;;;;233.33;44.50;;;;;;;;;;4987215;28;20220;-53
2022/11/20 00:08:11;;;;;;;322.37;62.50;;;;;;;;;;4992149;28;20904;-53
2022/11/20 00:10:38;;;;;;;285.13;56.33;;;;;;;;;;4994631;28;20443;-53
2022/11/20 00:13:04;;;;;;;183.73;37.73;;;;;;;;;;4997186;28;20227;-54
2022/11/20 00:15:30;;;;;;;104.17;25.17;;;;;;;;;;4988334;28;20188;-52
2022/11/20 00:17:56;;;;;;;116.93;28.10;;;;;;;;;;4987920;28;20184;-53
2022/11/20 00:20:22;;;;;;;308.33;56.43;;;;;;;;;;4991048;28;20213;-53
2022/11/20 00:22:48;;;;;;;263.07;52.63;;;;;;;;;;4991176;28;20205;-52
2022/11/20 00:25:14;;;;;;;310.93;64.13;;;;;;;;;;4984514;28;20221;-53
2022/11/20 00:27:40;;;;;;;231.53;46.70;;;;;;;;;;4987807;28;20652;-53
2022/11/20 00:30:06;;;;;;;126.67;29.77;;;;;;;;;;4988094;28;20177;-52
2022/11/20 00:32:32;;;;;;;314.77;63.80;;;;;;;;;;4975291;28;20282;-53
2022/11/20 00:34:58;;;;;;;265.00;56.50;;;;;;;;;;4986490;28;20224;-53
2022/11/20 00:37:24;;;;;;;177.13;36.67;;;;;;;;;;4989074;28;20213;-53
2022/11/20 00:39:50;;;;;;;330.70;64.90;;;;;;;;;;4984290;28;20704;-52
2022/11/20 00:42:16;;;;;;;216.13;40.90;;;;;;;;;;4997296;28;20264;-52
2022/11/20 00:44:42;;;;;;;272.10;50.30;;;;;;;;;;4988034;28;20248;-52
2022/11/20 00:47:08;;;;;;;238.97;52.33;;;;;;;;;;4982448;28;20704;-52
2022/11/20 00:49:34;;;;;;;314.07;66.13;;;;;;;;;;4984979;28;20220;-53
2022/11/20 00:52:00;;;;;;;334.97;71.97;;;;;;;;;;4981348;28;20311;-52
2022/11/20 00:54:26;;;;;;;342.43;67.53;;;;;;;;;;4977579;28;20372;-52
2022/11/20 00:56:54;;;;;;;193.80;44.30;;;;;;;;;;4974746;28;20197;-52
2022/11/20 00:59:20;;;;;;;185.40;41.20;;;;;;;;;;4982402;28;20224;-53
2022/11/20 01:01:46;;;;;;;385.87;83.53;;;;;;;;;;4980530;28;20212;-53
2022/11/20 01:04:12;;;;;;;247.43;50.23;;;;;;;;;;4982256;28;20217;-53
2022/11/20 01:06:39;;;;;;;394.00;80.00;;;;;;;;;;4988247;28;20240;-52
2022/11/20 01:09:10;;;;;;;258.23;54.00;;;;;;;;;;4990099;28;20260;-52
2022/11/20 01:11:37;;;;;;;122.30;28.83;;;;;;;;;;4978277;28;20263;-53
2022/11/20 01:14:04;;;;;;;190.07;40.60;;;;;;;;;;4993977;28;20239;-53
2022/11/20 01:16:34;;;;;;;337.63;70.63;;;;;;;;;;4976657;28;20275;-52
2022/11/20 01:19:01;;;;;;;321.37;58.13;;;;;;;;;;4970953;28;20343;-53
2022/11/20 01:21:28;;;;;;;306.67;68.30;;;;;;;;;;4983381;28;20257;-53
2022/11/20 01:23:55;;;;;;;311.97;65.67;;;;;;;;;;4976267;28;20437;-52
2022/11/20 01:26:22;;;;;;;174.77;39.93;;;;;;;;;;4976701;28;20208;-53
2022/11/20 01:28:48;;;;;;;251.73;49.70;;;;;;;;;;4977086;28;20701;-53
2022/11/20 01:31:19;;;;;;;246.17;51.23;;;;;;;;;;4983722;28;20212;-53
2022/11/20 01:33:46;;;;;;;206.70;46.40;;;;;;;;;;4981269;28;20232;-52
2022/11/20 01:36:12;;;;;;;314.63;56.90;;;;;;;;;;4985474;28;20641;-53
2022/11/20 01:38:38;;;;;;;196.47;41.47;;;;;;;;;;4991644;28;20212;-53
2022/11/20 01:41:04;;;;;;;424.43;90.47;;;;;;;;;;4978384;28;20307;-52
2022/11/20 01:43:30;;;;;;;270.97;51.67;;;;;;;;;;4986226;28;20264;-54
2022/11/20 01:45:58;;;;;;;269.77;48.93;;;;;;;;;;4993926;28;20251;-53
2022/11/20 01:48:25;;;;;;;243.13;51.20;;;;;;;;;;4977302;28;20183;-53
2022/11/20 01:50:53;;;;;;;340.97;71.10;;;;;;;;;;4980817;28;20228;-53
2022/11/20 01:53:21;;;;;;;156.47;31.20;;;;;;;;;;4986524;28;20248;-53
2022/11/20 01:55:50;;;;;;;322.50;62.67;;;;;;;;;;4986371;28;20297;-53
2022/11/20 01:58:17;;;;;;;380.40;76.30;;;;;;;;;;4971507;28;20264;-52
2022/11/20 02:00:43;;;;;;;357.20;68.17;;;;;;;;;;4970354;28;20248;-53
2022/11/20 02:03:11;;;;;;;243.30;45.33;;;;;;;;;;4977284;28;20271;-53
2022/11/20 02:05:44;;;;;;;142.93;28.13;;;;;;;;;;4984320;28;20256;-53
2022/11/20 02:08:10;;;;;;;237.83;44.00;;;;;;;;;;4976401;28;20812;-53
2022/11/20 02:10:35;;;;;;;267.27;47.40;;;;;;;;;;4973360;28;20288;-53
2022/11/20 02:15:47;;;;;;;194.90;38.30;;;;;;;;;;4986305;28;20763;-53
2022/11/20 02:18:15;;;;;;;437.57;80.73;;;;;;;;;;4975797;28;20860;-53
2022/11/20 02:20:42;;;;;;;212.47;39.10;;;;;;;;;;4978224;28;20267;-52
2022/11/20 02:23:31;;;;;;;288.80;55.30;;;;;;;;;;4983753;28;20782;-54
2022/11/20 02:25:58;;;;;;;253.20;49.53;;;;;;;;;;4985945;28;20273;-54
2022/11/20 02:28:25;;;;;;;349.77;64.80;;;;;;;;;;4974994;28;20263;-53
2022/11/20 02:30:50;;;;;;;199.27;39.07;;;;;;;;;;4973247;28;21200;-53
2022/11/20 02:33:16;;;;;;;209.60;42.03;;;;;;;;;;4975788;28;20210;-54
2022/11/20 02:35:44;;;;;;;306.63;55.20;;;;;;;;;;4988403;28;20247;-53
2022/11/20 02:38:10;;;;;;;317.73;58.20;;;;;;;;;;4977163;28;20213;-52
2022/11/20 02:40:36;;;;;;;286.77;53.50;;;;;;;;;;4964967;28;20609;-53
2022/11/20 02:43:02;;;;;;;126.63;28.70;;;;;;;;;;4992740;28;20217;-53
2022/11/20 02:45:28;;;;;;;283.90;54.63;;;;;;;;;;4984435;28;20977;-54
2022/11/20 02:47:54;;;;;;;282.07;50.83;;;;;;;;;;4980353;28;20204;-53
2022/11/20 02:50:20;;;;;;;290.83;57.30;;;;;;;;;;4973849;28;20680;-53
2022/11/20 02:52:46;;;;;;;369.30;75.37;;;;;;;;;;4983531;28;20217;-54
2022/11/20 02:55:12;;;;;;;268.53;61.67;;;;;;;;;;4975758;28;20220;-53
2022/11/20 02:57:38;;;;;;;393.43;72.40;;;;;;;;;;4966990;28;20221;-53
2022/11/20 03:00:04;;;;;;;228.07;44.03;;;;;;;;;;4976496;28;20181;-53
2022/11/20 03:02:31;;;;;;;193.37;35.73;;;;;;;;;;4984128;28;20220;-54
2022/11/20 03:04:57;;;;;;;269.93;54.33;;;;;;;;;;4981519;28;20304;-54
2022/11/20 03:07:23;;;;;;;176.00;38.00;;;;;;;;;;4985876;28;20689;-53
2022/11/20 03:09:49;;;;;;;334.33;70.87;;;;;;;;;;4985573;28;20640;-53
2022/11/20 03:12:15;;;;;;;165.47;38.03;;;;;;;;;;4982304;28;20220;-53
2022/11/20 03:14:41;;;;;;;320.63;69.53;;;;;;;;;;4993592;28;20240;-54
2022/11/20 03:17:07;;;;;;;241.47;56.00;;;;;;;;;;4987228;28;20239;-53
2022/11/20 03:19:34;;;;;;;384.27;80.13;;;;;;;;;;4968863;28;21043;-53
2022/11/20 03:22:00;;;;;;;293.47;69.23;;;;;;;;;;4976192;28;20250;-52
2022/11/20 03:24:26;;;;;;;316.87;66.23;;;;;;;;;;4985536;28;20307;-53
2022/11/20 03:26:52;;;;;;;305.03;62.87;;;;;;;;;;4971427;28;20185;-52
2022/11/20 03:29:18;;;;;;;269.00;58.13;;;;;;;;;;4971187;28;20208;-53
2022/11/20 03:31:44;;;;;;;285.00;60.40;;;;;;;;;;4973428;28;20708;-54
2022/11/20 03:34:11;;;;;;;181.73;41.90;;;;;;;;;;4977058;28;20774;-52
2022/11/20 03:36:41;;;;;;;342.93;72.03;;;;;;;;;;4975859;28;20307;-53
2022/11/20 03:39:07;;;;;;;189.37;40.60;;;;;;;;;;4981060;28;21770;-54
2022/11/20 03:41:37;;;;;;;169.77;37.83;;;;;;;;;;4984848;28;20221;-52
2022/11/20 03:44:04;;;;;;;171.70;39.40;;;;;;;;;;4988396;28;20223;-53
2022/11/20 03:46:30;;;;;;;360.80;85.20;;;;;;;;;;4980224;28;20693;-52
2022/11/20 03:48:56;;;;;;;215.10;47.67;;;;;;;;;;4987392;28;20292;-53
2022/11/20 03:51:23;;;;;;;194.13;43.87;;;;;;;;;;4983708;28;20189;-53
2022/11/20 03:53:50;;;;;;;305.17;68.80;;;;;;;;;;4978109;28;20301;-54
2022/11/20 03:56:17;;;;;;;184.73;41.30;;;;;;;;;;4983733;28;20217;-53
2022/11/20 03:58:43;;;;;;;254.73;61.13;;;;;;;;;;4979648;28;20213;-54
2022/11/20 04:01:16;;;;;;;186.23;41.53;;;;;;;;;;4975716;28;20217;-52
2022/11/20 04:03:43;;;;;;;154.87;34.60;;;;;;;;;;4985749;28;20221;-54
2022/11/20 04:06:22;;;;;;;239.30;55.23;;;;;;;;;;4989014;28;20516;-54
2022/11/20 04:08:49;;;;;;;293.33;68.03;;;;;;;;;;4979807;28;21060;-53
2022/11/20 04:11:19;;;;;;;263.00;58.83;;;;;;;;;;4981849;28;20263;-53
2022/11/20 04:14:05;;;;;;;330.00;73.40;;;;;;;;;;4987869;28;22173;-53
2022/11/20 04:16:33;;;;;;;224.77;53.23;;;;;;;;;;4969444;28;20674;-53
2022/11/20 04:19:00;;;;;;;160.53;35.57;;;;;;;;;;4967362;28;21281;-54
2022/11/20 04:21:26;;;;;;;208.43;52.27;;;;;;;;;;4970374;28;20532;-53
2022/11/20 04:23:53;;;;;;;327.67;70.53;;;;;;;;;;4987652;28;20398;-53
2022/11/20 04:26:19;;;;;;;218.47;47.13;;;;;;;;;;4985771;28;20221;-53
2022/11/20 04:28:45;;;;;;;168.17;34.90;;;;;;;;;;4982767;28;20300;-54
2022/11/20 04:31:13;;;;;;;374.07;89.47;;;;;;;;;;4974499;28;20216;-53
2022/11/20 04:33:39;;;;;;;247.87;57.53;;;;;;;;;;4977747;28;20229;-53
2022/11/20 04:36:05;;;;;;;176.93;42.80;;;;;;;;;;4972779;28;20228;-54
2022/11/20 04:38:31;;;;;;;146.77;35.17;;;;;;;;;;4992458;28;20255;-53
2022/11/20 04:40:58;;;;;;;212.97;47.90;;;;;;;;;;4985482;28;20270;-54
2022/11/20 04:43:24;;;;;;;285.53;64.80;;;;;;;;;;4980605;28;20267;-53
2022/11/20 04:45:57;;;;;;;294.70;67.80;;;;;;;;;;4978677;28;20217;-52
2022/11/20 04:48:23;;;;;;;308.00;73.63;;;;;;;;;;5002256;28;20185;-53
2022/11/20 04:50:49;;;;;;;91.20;22.67;;;;;;;;;;4982109;28;20196;-53
2022/11/20 04:53:15;;;;;;;345.37;76.77;;;;;;;;;;4977750;28;20225;-53
2022/11/20 04:55:41;;;;;;;314.50;68.07;;;;;;;;;;4986935;28;20220;-53
2022/11/20 04:58:07;;;;;;;315.50;69.60;;;;;;;;;;4986513;28;20287;-53
2022/11/20 05:00:33;;;;;;;166.13;41.07;;;;;;;;;;4981079;28;20358;-52
2022/11/20 05:02:59;;;;;;;242.00;55.70;;;;;;;;;;4971815;28;20212;-53
2022/11/20 05:05:25;;;;;;;234.43;49.23;;;;;;;;;;4991956;28;20254;-53
2022/11/20 05:07:51;;;;;;;133.63;31.00;;;;;;;;;;4991126;28;20304;-53
2022/11/20 05:10:17;;;;;;;272.00;61.10;;;;;;;;;;4990262;28;20296;-52
2022/11/20 05:12:43;;;;;;;204.50;45.97;;;;;;;;;;4980741;28;20310;-53
2022/11/20 05:15:09;;;;;;;231.20;54.97;;;;;;;;;;4986245;28;20316;-52
2022/11/20 05:17:35;;;;;;;252.60;61.47;;;;;;;;;;4974836;28;20719;-54
2022/11/20 05:20:01;;;;;;;258.37;59.80;;;;;;;;;;4976546;28;20229;-53
2022/11/20 05:22:27;;;;;;;327.87;73.80;;;;;;;;;;4974338;28;20224;-52
2022/11/20 05:24:53;;;;;;;222.33;51.70;;;;;;;;;;4978655;28;20224;-52
2022/11/20 05:27:19;;;;;;;267.00;57.57;;;;;;;;;;4986095;28;20201;-52
2022/11/20 05:29:45;;;;;;;193.07;44.93;;;;;;;;;;4991211;28;20645;-53
2022/11/20 05:32:11;;;;;;;255.70;61.30;;;;;;;;;;4972398;28;20224;-53
2022/11/20 05:34:37;;;;;;;133.23;31.20;;;;;;;;;;4993392;28;20648;-52
2022/11/20 05:37:03;;;;;;;145.03;31.23;;;;;;;;;;4978621;28;20209;-53
2022/11/20 05:39:32;;;;;;;273.13;60.67;;;;;;;;;;4989163;28;20197;-52
2022/11/20 05:44:42;;;;;;;306.00;70.70;;;;;;;;;;4980884;28;20214;-52
2022/11/20 05:47:08;;;;;;;137.70;31.97;;;;;;;;;;4982979;28;20208;-52
2022/11/20 05:49:34;;;;;;;257.93;54.20;;;;;;;;;;4993783;28;20228;-52
2022/11/20 05:52:00;;;;;;;322.70;69.00;;;;;;;;;;4991828;28;20308;-53
2022/11/20 05:54:26;;;;;;;258.60;53.10;;;;;;;;;;4994686;28;20204;-54
2022/11/20 05:56:52;;;;;;;189.83;41.20;;;;;;;;;;4991700;28;20208;-53
2022/11/20 05:59:18;;;;;;;107.90;26.17;;;;;;;;;;4995528;28;20623;-52
2022/11/20 06:01:44;;;;;;;348.07;81.57;;;;;;;;;;4980175;28;20209;-55
2022/11/20 06:04:09;;;;;;;177.83;39.83;;;;;;;;;;4990543;28;20212;-54
2022/11/20 06:06:35;;;;;;;280.37;61.97;;;;;;;;;;4996600;28;20220;-54
2022/11/20 06:09:01;;;;;;;203.07;46.63;;;;;;;;;;4985739;28;20181;-54
2022/11/20 06:11:27;;;;;;;219.20;48.67;;;;;;;;;;4976711;28;20228;-54
2022/11/20 06:13:53;;;;;;;164.20;35.00;;;;;;;;;;4987853;28;20501;-54
2022/11/20 06:16:21;;;;;;;320.97;72.83;;;;;;;;;;4979071;28;20227;-53
2022/11/20 06:18:47;;;;;;;357.10;82.03;;;;;;;;;;4977898;28;20284;-54
2022/11/20 06:21:18;;;;;;;282.47;63.50;;;;;;;;;;4973159;28;20983;-54
2022/11/20 06:23:44;;;;;;;310.97;70.10;;;;;;;;;;4985339;28;20293;-54
2022/11/20 06:26:14;;;;;;;70.27;18.20;;;;;;;;;;4985311;28;20278;-56
2022/11/20 06:28:40;;;;;;;194.07;44.40;;;;;;;;;;4988378;28;20225;-53
2022/11/20 06:31:07;;;;;;;223.63;49.70;;;;;;;;;;4978795;28;20231;-54
2022/11/20 06:33:34;;;;;;;156.60;36.70;;;;;;;;;;4974558;28;20229;-55
2022/11/20 06:36:00;;;;;;;299.23;67.80;;;;;;;;;;4980654;28;20271;-54
2022/11/20 06:38:27;;;;;;;144.13;32.70;;;;;;;;;;4986710;28;20218;-55
2022/11/20 06:40:53;;;;;;;265.57;58.00;;;;;;;;;;4983331;28;20226;-55
2022/11/20 06:43:19;;;;;;;154.00;36.47;;;;;;;;;;4982422;28;20473;-55
2022/11/20 06:45:45;;;;;;;273.47;60.20;;;;;;;;;;4986218;28;20217;-55
2022/11/20 06:48:11;;;;;;;282.60;57.07;;;;;;;;;;4979207;28;20193;-55
2022/11/20 06:50:38;;;;;;;319.37;70.90;;;;;;;;;;4975714;28;20563;-55
2022/11/20 06:53:04;;;;;;;215.60;48.73;;;;;;;;;;4990566;28;20844;-55
2022/11/20 06:55:31;;;;;;;180.23;41.80;;;;;;;;;;4984762;28;20239;-54
2022/11/20 06:57:57;;;;;;;384.93;83.17;;;;;;;;;;4984196;28;20656;-55
2022/11/20 07:00:23;;;;;;;202.20;42.37;;;;;;;;;;4989621;28;20319;-53
2022/11/20 07:02:49;;;;;;;358.83;74.60;;;;;;;;;;4977433;28;22560;-54
2022/11/20 07:05:15;;;;;;;163.77;33.50;;;;;;;;;;4963895;28;20213;-53
2022/11/20 07:07:42;;;;;;;118.93;24.00;;;;;;;;;;4983026;28;20227;-54
2022/11/20 07:10:10;;;;;;;320.63;67.20;;;;;;;;;;4975223;28;20292;-53
2022/11/20 07:12:36;;;;;;;263.53;59.20;;;;;;;;;;4987094;28;20216;-55
2022/11/20 07:15:02;;;;;;;460.83;101.63;;;;;;;;;;4972987;28;20223;-53
2022/11/20 07:17:28;;;;;;;213.10;41.67;;;;;;;;;;4959354;28;20832;-54
2022/11/20 07:19:54;;;;;;;597.00;137.33;;;;;;;;;;4956701;28;20225;-53
2022/11/20 07:22:21;;;;;;;143.37;33.03;;;;;;;;;;4941255;28;20223;-53
2022/11/20 07:24:47;;;;;;;227.70;51.97;;;;;;;;;;4984432;28;20209;-54
2022/11/20 07:27:13;;;;;;;174.23;37.70;;;;;;;;;;4986189;28;20212;-54
2022/11/20 07:29:39;;;;;;;194.13;45.57;;;;;;;;;;4989584;28;20197;-53
2022/11/20 07:32:05;;;;;;;364.73;90.53;;;;;;;;;;4983286;28;20209;-53
2022/11/20 07:34:31;;;;;;;202.73;45.77;;;;;;;;;;4983809;28;20224;-53
2022/11/20 07:36:57;;;;;;;287.37;58.67;;;;;;;;;;4984205;28;20216;-53
2022/11/20 07:39:23;;;;;;;149.57;39.17;;;;;;;;;;4982317;28;20196;-53
2022/11/20 07:41:49;;;;;;;231.63;49.07;;;;;;;;;;4984403;28;20925;-54
2022/11/20 07:44:15;;;;;;;403.17;89.23;;;;;;;;;;4974436;28;20205;-53
2022/11/20 07:46:41;;;;;;;337.87;82.67;;;;;;;;;;4988404;28;20220;-54
2022/11/20 07:49:07;;;;;;;278.33;61.57;;;;;;;;;;4984817;28;20243;-53
2022/11/20 07:51:33;;;;;;;275.27;61.47;;;;;;;;;;4979016;28;20295;-53
2022/11/20 07:53:59;;;;;;;378.00;82.40;;;;;;;;;;4981086;28;20634;-53
2022/11/20 07:56:25;;;;;;;283.47;65.80;;;;;;;;;;4991997;28;20769;-53
2022/11/20 07:58:51;;;;;;;314.03;70.20;;;;;;;;;;5005272;28;20204;-54
2022/11/20 08:01:17;;;;;;;235.57;53.07;;;;;;;;;;5010906;28;20211;-53
2022/11/20 08:03:43;;;;;;;220.67;48.33;;;;;;;;;;4999757;28;20216;-53
2022/11/20 08:06:09;;;;;;;244.80;52.33;;;;;;;;;;5010305;28;20184;-53
2022/11/20 08:08:35;;;;;;;188.80;41.57;;;;;;;;;;5011620;28;20219;-53
2022/11/20 08:16:31;;;;;;;346.67;80.00;;;;;;;;;;4982057;28;20270;-54
2022/11/20 08:18:56;;;;;;;195.13;48.13;;;;;;;;;;4977097;28;20808;-53
2022/11/20 08:21:23;;;;;;;376.90;94.40;;;;;;;;;;4982845;28;20188;-53
2022/11/20 08:23:49;;;;;;;184.67;42.43;;;;;;;;;;4989353;28;20192;-53
2022/11/20 08:26:15;;;;;;;275.83;65.13;;;;;;;;;;4992736;28;20348;-53
2022/11/20 08:28:41;;;;;;;374.13;81.17;;;;;;;;;;4979532;28;20213;-53
2022/11/20 08:31:07;;;;;;;406.30;85.10;;;;;;;;;;4976584;28;21632;-53
2022/11/20 08:33:33;;;;;;;401.47;86.80;;;;;;;;;;4994677;28;20207;-53
2022/11/20 08:36:03;;;;;;;364.03;72.63;;;;;;;;;;4996159;28;20909;-53
2022/11/20 08:38:29;;;;;;;242.43;48.30;;;;;;;;;;4977998;28;20793;-53
2022/11/20 08:43:47;;;;;;;188.20;36.03;;;;;;;;;;4969935;28;20392;-53
2022/11/20 08:46:14;;;;;;;287.80;60.43;;;;;;;;;;4987434;28;20227;-54
2022/11/20 08:48:39;;;;;;;278.30;60.83;;;;;;;;;;4981330;28;20228;-54
2022/11/20 08:51:05;;;;;;;143.80;30.90;;;;;;;;;;4984677;28;20193;-54
2022/11/20 08:53:31;;;;;;;287.93;61.47;;;;;;;;;;4977148;28;20383;-53
2022/11/20 08:55:58;;;;;;;166.13;37.63;;;;;;;;;;4988642;28;21522;-55
2022/11/20 08:58:24;;;;;;;234.27;50.27;;;;;;;;;;4996985;28;20697;-54
2022/11/20 09:00:50;;;;;;;192.43;41.37;;;;;;;;;;4994302;28;20835;-54
2022/11/20 09:03:15;;;;;;;211.67;47.97;;;;;;;;;;4983407;28;20204;-57
2022/11/20 09:05:42;;;;;;;283.47;64.10;;;;;;;;;;4987177;28;20212;-57
2022/11/20 09:08:11;;;;;;;319.83;72.10;;;;;;;;;;4984618;28;20251;-57
2022/11/20 09:10:39;;;;;;;372.13;88.23;;;;;;;;;;4985676;28;20217;-57
2022/11/20 09:13:05;;;;;;;192.60;44.63;;;;;;;;;;4983574;28;20221;-53
2022/11/20 09:15:32;;;;;;;188.30;44.33;;;;;;;;;;4986369;28;20607;-53
2022/11/20 09:17:59;;;;;;;302.87;73.13;;;;;;;;;;4991383;28;20178;-53
2022/11/20 09:20:25;;;;;;;332.80;79.57;;;;;;;;;;4978950;28;20292;-54
2022/11/20 09:22:51;;;;;;;196.13;47.47;;;;;;;;;;4970975;28;20219;-53
2022/11/20 09:25:17;;;;;;;338.10;74.23;;;;;;;;;;4973158;28;20302;-53
2022/11/20 09:27:45;;;;;;;348.43;82.97;;;;;;;;;;4975555;28;20809;-53
2022/11/20 09:30:12;;;;;;;254.37;59.83;;;;;;;;;;4971009;28;20514;-52
2022/11/20 09:32:39;;;;;;;249.07;53.97;;;;;;;;;;4981259;28;20287;-52
2022/11/20 09:35:05;;;;;;;394.00;80.57;;;;;;;;;;4984130;28;20229;-52
2022/11/20 09:37:31;;;;;;;281.90;58.63;;;;;;;;;;4969051;28;20216;-53
2022/11/20 09:39:57;;;;;;;167.53;36.47;;;;;;;;;;4987884;28;20585;-53
2022/11/20 09:42:23;;;;;;;225.27;49.13;;;;;;;;;;5001685;28;20762;-53
2022/11/20 09:44:52;;;;;;;239.83;54.13;;;;;;;;;;5001189;28;20185;-53
2022/11/20 09:47:20;;;;;;;338.03;105.80;;;;;;;;;;4988985;28;20271;-53
2022/11/20 09:50:05;;;;;;;273.43;75.30;;;;;;;;;;4995515;28;23549;-53
2022/11/20 09:52:50;;;;;;;186.77;61.60;;;;;;;;;;4980070;28;20235;-52
2022/11/20 09:55:16;;;;;;;289.70;76.70;;;;;;;;;;4983164;28;20224;-53
2022/11/20 09:57:47;;;;;;;425.90;108.90;;;;;;;;;;4981942;28;20684;-53
2022/11/20 10:00:14;;;;;;;223.93;60.20;;;;;;;;;;4966862;28;20736;-52
2022/11/20 10:02:40;;;;;;;399.83;104.17;;;;;;;;;;4980972;28;20298;-52
2022/11/20 10:05:19;;;;;;;257.20;71.37;;;;;;;;;;4983251;28;20708;-52
2022/11/20 10:07:45;;;;;;;177.60;54.23;;;;;;;;;;4991496;28;20216;-52
2022/11/20 10:10:16;;;;;;;351.33;96.13;;;;;;;;;;4970740;28;20221;-52
2022/11/20 10:13:02;;;;;;;364.30;98.63;;;;;;;;;;4954917;28;20376;-53
2022/11/20 10:15:28;;;;;;;237.07;67.67;;;;;;;;;;4975738;28;20256;-52
2022/11/20 10:18:09;;;;;;;279.43;72.93;;;;;;;;;;4976225;28;20655;-52
2022/11/20 10:20:50;;;;;;;300.00;82.03;;;;;;;;;;4969976;28;20213;-53
2022/11/20 10:23:27;;;;;;;239.30;68.00;;;;;;;;;;4976956;28;20235;-52
2022/11/20 10:25:53;;;;;;;203.87;61.30;;;;;;;;;;4996887;28;20268;-53
2022/11/20 10:28:37;;;;;;;179.67;55.90;;;;;;;;;;4988427;28;20323;-53
2022/11/20 10:31:05;;;;;;;302.07;82.30;;;;;;;;;;4991971;28;20209;-53
2022/11/20 10:33:37;;;;;;;312.17;89.87;;;;;;;;;;4987546;28;21335;-53
2022/11/20 10:36:12;;;;;;;139.37;40.80;;;;;;;;;;5001993;28;20193;-51
2022/11/20 10:38:44;;;;;;;194.57;54.27;;;;;;;;;;5003591;28;20208;-54
2022/11/20 10:41:26;;;;;;;304.73;76.97;;;;;;;;;;5005561;28;20209;-53
2022/11/20 10:43:54;;;;;;;217.57;64.50;;;;;;;;;;5004537;28;20253;-53
2022/11/20 10:46:22;;;;;;;202.27;52.40;;;;;;;;;;5007785;28;20220;-53
2022/11/20 10:48:48;;;;;;;84.97;28.97;;;;;;;;;;5008739;28;20209;-53
2022/11/20 10:51:23;;;;;;;90.30;30.57;;;;;;;;;;5007160;28;20185;-53
2022/11/20 10:53:52;;;;;;;208.10;53.67;;;;;;;;;;5007111;28;20200;-53
2022/11/20 10:56:21;;;;;;;161.83;46.83;;;;;;;;;;5006641;28;20795;-53
2022/11/20 10:59:02;;;;;;;245.33;72.67;;;;;;;;;;5019947;28;20714;-53
2022/11/20 11:01:28;;;;;;;200.47;59.83;;;;;;;;;;4998820;28;20220;-53
2022/11/20 11:03:56;;;;;;;185.50;54.63;;;;;;;;;;5002431;28;20255;-54
2022/11/20 11:06:31;;;;;;;188.70;58.67;;;;;;;;;;5000015;28;20184;-54
2022/11/20 11:08:59;;;;;;;282.63;73.87;;;;;;;;;;5002849;28;20448;-52
2022/11/20 11:11:28;;;;;;;91.37;34.90;;;;;;;;;;5001943;28;20219;-54
2022/11/20 11:13:54;;;;;;;166.47;58.23;;;;;;;;;;4990771;28;20220;-52
2022/11/20 11:16:21;;;;;;;123.10;42.20;;;;;;;;;;4992071;28;20270;-52
2022/11/20 11:18:48;;;;;;;286.50;73.63;;;;;;;;;;5008377;28;20933;-53
2022/11/20 11:21:14;;;;;;;151.17;49.00;;;;;;;;;;5009048;28;20234;-53
2022/11/20 11:23:41;;;;;;;304.50;83.97;;;;;;;;;;5008576;28;20252;-53
2022/11/20 11:26:24;;;;;;;77.10;34.20;;;;;;;;;;5009279;28;20227;-53
2022/11/20 11:29:00;;;;;;;202.33;63.90;;;;;;;;;;5008236;28;20241;-53
2022/11/20 11:31:27;;;;;;;132.47;44.60;;;;;;;;;;5009454;28;20200;-53
2022/11/20 11:34:04;;;;;;;165.07;57.57;;;;;;;;;;5007493;28;20229;-54
2022/11/20 11:36:30;;;;;;;197.53;63.83;;;;;;;;;;5008252;28;20169;-54
2022/11/20 11:38:56;;;;;;;249.37;71.90;;;;;;;;;;5008040;28;20181;-54
2022/11/20 11:41:28;;;;;;;146.77;48.53;;;;;;;;;;5008346;28;20223;-54
2022/11/20 11:46:41;;;;;;;171.63;56.10;;;;;;;;;;5009149;28;20219;-54
2022/11/20 11:49:11;;;;;;;189.27;59.00;;;;;;;;;;5013887;28;20209;-54
2022/11/20 11:52:00;;;;;;;64.63;30.23;;;;;;;;;;5014165;28;20216;-54
2022/11/20 11:54:39;;;;;;;382.67;103.90;;;;;;;;;;4992937;28;20201;-54
2022/11/20 11:57:23;;;;;;;282.53;97.43;;;;;;;;;;4991251;28;20532;-54
2022/11/20 11:59:50;;;;;;;239.93;79.13;;;;;;;;;;4998470;28;20296;-54
2022/11/20 12:02:34;;;;;;;107.70;50.73;;;;;;;;;;4993471;28;20213;-56
2022/11/20 12:05:19;;;;;;;364.07;119.67;;;;;;;;;;5000371;28;21070;-55
2022/11/20 12:07:45;;;;;;;227.17;63.63;;;;;;;;;;4992600;28;20227;-54
2022/11/20 12:10:20;;;;;;;109.73;43.60;;;;;;;;;;5001064;28;20216;-60
2022/11/20 12:12:48;;;;;;;298.10;90.70;;;;;;;;;;5007770;28;20282;-58
2022/11/20 12:15:22;;;;;;;248.83;75.60;;;;;;;;;;5021917;28;20201;-58
2022/11/20 12:17:48;;;;;;;84.40;41.40;;;;;;;;;;5012823;28;20568;-56
2022/11/20 12:20:14;;;;;;;211.60;72.80;;;;;;;;;;5007556;28;20704;-55
2022/11/20 12:22:52;;;;;;;177.13;62.10;;;;;;;;;;5010065;28;20270;-54
2022/11/20 12:25:21;;;;;;;321.97;93.23;;;;;;;;;;5014191;28;20589;-55
2022/11/20 12:27:56;;;;;;;286.80;90.63;;;;;;;;;;5014128;28;20219;-54
2022/11/20 12:30:24;;;;;;;102.70;49.83;;;;;;;;;;5012694;28;20184;-55
2022/11/20 12:33:02;;;;;;;287.63;92.87;;;;;;;;;;5004184;28;20716;-55
2022/11/20 12:35:34;;;;;;;301.37;91.00;;;;;;;;;;5010213;28;20264;-55
2022/11/20 12:38:12;;;;;;;191.30;68.53;;;;;;;;;;5014599;28;20677;-54
2022/11/20 12:40:56;;;;;;;200.20;67.57;;;;;;;;;;5014498;28;20212;-54
2022/11/20 12:46:15;;;;;;;125.87;55.17;;;;;;;;;;4965306;28;20871;-54
2022/11/20 12:48:44;;;;;;;281.00;94.77;;;;;;;;;;4981135;28;20213;-55
2022/11/20 12:51:16;;;;;;;287.83;102.57;;;;;;;;;;4989389;28;20196;-54
2022/11/20 12:53:51;;;;;;;256.70;86.37;;;;;;;;;;4982524;28;20240;-54
2022/11/20 12:56:43;;;;;;;70.53;43.23;;;;;;;;;;5004013;28;20299;-54
2022/11/20 12:59:28;;;;;;;171.43;65.73;;;;;;;;;;5017313;28;20258;-54
2022/11/20 13:02:20;;;;;;;124.87;57.10;;;;;;;;;;5005377;28;20216;-54
2022/11/20 13:04:59;;;;;;;152.63;61.37;;;;;;;;;;5000564;28;20752;-54
2022/11/20 13:07:26;;;;;;;83.43;42.03;;;;;;;;;;5007460;28;20220;-54
2022/11/20 13:09:52;;;;;;;95.87;47.10;;;;;;;;;;5002862;28;20232;-55
2022/11/20 13:12:29;;;;;;;85.73;45.03;;;;;;;;;;5007151;28;20213;-54
2022/11/20 13:15:04;;;;;;;165.93;66.50;;;;;;;;;;5006951;28;20205;-54
2022/11/20 13:17:32;;;;;;;99.37;45.13;;;;;;;;;;5002053;28;20213;-54
2022/11/20 13:19:58;;;;;;;88.23;43.60;;;;;;;;;;5008608;28;20555;-54
2022/11/20 13:22:29;;;;;;;124.23;51.20;;;;;;;;;;5020352;28;20300;-54
2022/11/20 13:24:55;;;;;;;77.33;47.67;;;;;;;;;;5004134;28;20271;-54
2022/11/20 13:27:23;;;;;;;111.83;57.13;;;;;;;;;;5007453;28;20226;-54
2022/11/20 13:30:21;;;;;;;122.53;58.43;;;;;;;;;;5006562;28;20205;-54
2022/11/20 13:33:07;;;;;;;78.57;39.70;;;;;;;;;;4963421;28;20300;-54
2022/11/20 13:35:37;;;;;;;118.13;57.90;;;;;;;;;;5006198;28;20673;-54
2022/11/20 13:38:03;;;;;;;113.10;58.73;;;;;;;;;;5020544;28;20217;-54
2022/11/20 13:40:29;;;;;;;288.90;108.37;;;;;;;;;;4982212;28;20217;-54
2022/11/20 13:42:57;;;;;;;402.23;127.97;;;;;;;;;;4979919;28;20384;-55
2022/11/20 13:45:28;;;;;;;382.80;127.87;;;;;;;;;;4971750;28;22628;-54
2022/11/20 13:47:55;;;;;;;511.23;157.97;;;;;;;;;;4968112;28;20283;-54
2022/11/20 13:50:38;;;;;;;215.23;85.43;;;;;;;;;;4973580;28;20278;-54
2022/11/20 13:53:13;;;;;;;209.10;86.90;;;;;;;;;;4983032;28;20576;-54
2022/11/20 13:55:56;;;;;;;358.23;120.20;;;;;;;;;;4985722;28;20228;-55
2022/11/20 13:58:28;;;;;;;427.90;138.37;;;;;;;;;;4984811;28;20259;-55
2022/11/20 14:01:12;;;;;;;298.30;100.97;;;;;;;;;;5005512;28;21039;-55
2022/11/20 14:03:39;;;;;;;321.20;119.73;;;;;;;;;;4969875;28;20351;-55
2022/11/20 14:06:06;;;;;;;255.47;101.97;;;;;;;;;;4987219;28;20289;-54
2022/11/20 14:08:45;;;;;;;399.83;138.47;;;;;;;;;;4977535;28;20255;-54
2022/11/20 14:11:19;;;;;;;237.87;96.13;;;;;;;;;;4970958;28;20232;-55
2022/11/20 14:13:56;;;;;;;311.57;114.63;;;;;;;;;;4973311;28;21230;-54
2022/11/20 14:16:23;;;;;;;290.70;106.03;;;;;;;;;;4982232;28;20232;-55
2022/11/20 14:18:49;;;;;;;321.83;119.80;;;;;;;;;;4976057;28;20275;-55
2022/11/20 14:21:23;;;;;;;253.90;97.93;;;;;;;;;;4986813;28;20190;-54
2022/11/20 14:23:49;;;;;;;263.83;103.70;;;;;;;;;;4987349;28;20944;-58
2022/11/20 14:26:19;;;;;;;263.43;102.83;;;;;;;;;;4980847;28;20456;-54
2022/11/20 14:28:48;;;;;;;221.97;88.70;;;;;;;;;;4972919;28;20212;-55
2022/11/20 14:31:19;;;;;;;254.03;98.97;;;;;;;;;;4995363;28;20303;-54